Time;durP1;ratioP1;P1;durP2;ratioP2;P2;SDS_P1;SDS_P2;PMS_P1;PMS_P2;Temp;Humidity;BMP_temperature;BMP_pressure;BME280_temperature;BME280_humidity;BME280_pressure;Samples;Min_cycle;Max_cycle;Signal;HPM_P1;HPM_P2
2024/04/19 00:00:49;;;;;;;8.63;2.30;;;;;;;5.89;100.00;101610.69;5414827;26;20237;-72
2024/04/19 00:03:15;;;;;;;8.07;2.50;;;;;;;5.91;100.00;101621.19;5414721;26;20237;-71
2024/04/19 00:05:41;;;;;;;8.23;2.20;;;;;;;5.95;100.00;101617.28;5413938;26;20275;-71
2024/04/19 00:08:06;;;;;;;7.27;2.10;;;;;;;6.70;100.00;101707.66;5417940;26;20807;-71
2024/04/19 00:10:35;;;;;;;7.37;2.50;;;;;;;6.43;100.00;101695.22;5419066;26;20474;-72
2024/04/19 00:13:01;;;;;;;6.77;2.30;;;;;;;6.21;100.00;101662.66;5411953;26;20238;-72
2024/04/19 00:15:27;;;;;;;10.10;2.37;;;;;;;6.68;100.00;101721.13;5415103;26;20928;-71
2024/04/19 00:17:52;;;;;;;7.30;2.50;;;;;;;6.55;100.00;101680.69;5417147;26;20466;-72
2024/04/19 00:20:18;;;;;;;6.10;2.00;;;;;;;6.93;100.00;101692.84;5414674;26;20237;-71
2024/04/19 00:22:43;;;;;;;6.80;2.10;;;;;;;6.83;100.00;101649.44;5413490;26;20264;-72
2024/04/19 00:25:09;;;;;;;9.00;2.60;;;;;;;6.46;100.00;101613.13;5416017;26;20681;-71
2024/04/19 00:27:34;;;;;;;5.67;1.90;;;;;;;6.69;100.00;101620.66;5413313;26;20241;-71
2024/04/19 00:30:00;;;;;;;5.27;1.97;;;;;;;6.40;100.00;101583.59;5418509;26;20346;-71
2024/04/19 00:32:25;;;;;;;4.63;1.30;;;;;;;6.20;100.00;101505.66;5418635;26;20649;-71
2024/04/19 00:34:50;;;;;;;6.40;1.67;;;;;;;6.21;100.00;101541.97;5412609;26;21358;-71
2024/04/19 00:37:16;;;;;;;5.87;1.80;;;;;;;6.78;100.00;101569.06;5412116;26;20229;-72
2024/04/19 00:39:41;;;;;;;6.10;2.13;;;;;;;5.91;100.00;101487.22;5414934;26;20264;-72
2024/04/19 00:42:07;;;;;;;10.60;3.07;;;;;;;5.46;100.00;101443.69;5415346;26;20234;-72
2024/04/19 00:44:32;;;;;;;5.43;1.87;;;;;;;6.29;100.00;101641.44;5417394;26;20701;-72
2024/04/19 00:46:58;;;;;;;17.43;2.87;;;;;;;6.32;100.00;101641.13;5412595;26;20737;-72
2024/04/19 00:49:24;;;;;;;7.93;2.80;;;;;;;5.60;100.00;101565.59;5399154;26;20271;-72
2024/04/19 00:51:50;;;;;;;8.20;2.70;;;;;;;6.36;100.00;101705.63;5415019;26;20538;-73
2024/04/19 00:54:16;;;;;;;7.20;2.40;;;;;;;6.55;100.00;101740.16;5415442;26;20521;-72
2024/04/19 00:56:42;;;;;;;6.03;2.30;;;;;;;6.25;100.00;101727.13;5414359;26;20467;-72
2024/04/19 00:59:11;;;;;;;8.10;2.93;;;;;;;6.11;100.00;101691.22;5415315;26;20283;-72
2024/04/19 01:01:36;;;;;;;8.80;2.63;;;;;;;5.82;100.00;101644.22;5420575;26;20518;-71
2024/04/19 01:04:02;;;;;;;6.70;2.80;;;;;;;5.68;100.00;101643.88;5415950;26;21025;-72
2024/04/19 01:06:27;;;;;;;5.90;2.60;;;;;;;5.79;100.00;101654.34;5412806;26;20316;-72
2024/04/19 01:08:53;;;;;;;6.80;2.80;;;;;;;5.83;100.00;101677.84;5413974;26;20846;-71
2024/04/19 01:11:19;;;;;;;6.90;2.50;;;;;;;6.09;100.00;101727.78;5417412;26;20243;-72
2024/04/19 01:13:45;;;;;;;7.20;3.00;;;;;;;5.36;100.00;101606.06;5416521;26;20238;-72
2024/04/19 01:16:10;;;;;;;11.03;2.70;;;;;;;6.39;100.00;101753.28;5414769;26;20719;-71
2024/04/19 01:18:36;;;;;;;5.30;2.33;;;;;;;6.50;100.00;101755.75;5413575;26;20471;-71
2024/04/19 01:21:02;;;;;;;8.00;3.30;;;;;;;6.19;100.00;101709.09;5421000;26;20252;-72
2024/04/19 01:23:28;;;;;;;7.70;2.87;;;;;;;5.69;100.00;101629.56;5414188;26;20467;-72
2024/04/19 01:25:54;;;;;;;5.83;2.53;;;;;;;6.57;100.00;101743.50;5412865;26;20556;-72
2024/04/19 01:28:19;;;;;;;5.87;2.30;;;;;;;5.81;100.00;101617.75;5411715;26;20888;-71
2024/04/19 01:30:46;;;;;;;6.70;2.83;;;;;;;5.70;100.00;101610.81;5411008;26;20590;-71
2024/04/19 01:33:12;;;;;;;8.13;3.00;;;;;;;6.55;100.00;101718.00;5415019;26;20241;-71
2024/04/19 01:35:38;;;;;;;5.40;2.20;;;;;;;6.26;100.00;101644.41;5408853;26;20571;-71
2024/04/19 01:38:03;;;;;;;8.47;3.07;;;;;;;5.72;100.00;101595.50;5409081;26;20523;-72
2024/04/19 01:40:29;;;;;;;5.53;2.90;;;;;;;6.14;100.00;101658.94;5414146;26;20228;-72
2024/04/19 01:42:55;;;;;;;8.17;3.47;;;;;;;6.37;100.00;101679.84;5418548;26;20245;-72
2024/04/19 01:45:20;;;;;;;10.20;3.97;;;;;;;6.40;100.00;101684.88;5410370;26;20266;-72
2024/04/19 01:47:46;;;;;;;7.57;3.50;;;;;;;5.88;100.00;101597.53;5416568;26;20364;-72
2024/04/19 01:50:12;;;;;;;8.20;4.40;;;;;;;6.41;100.00;101687.38;5413315;26;20235;-73
2024/04/19 01:52:37;;;;;;;10.57;4.30;;;;;;;6.50;100.00;101691.78;5414375;26;20249;-72
2024/04/19 01:55:03;;;;;;;8.20;4.50;;;;;;;5.36;100.00;101538.72;5419574;26;20643;-72
2024/04/19 01:57:29;;;;;;;8.73;3.77;;;;;;;5.62;100.00;101553.00;5411197;26;20282;-72
2024/04/19 01:59:55;;;;;;;7.30;4.37;;;;;;;5.83;100.00;101599.81;5413850;26;20853;-73
2024/04/19 02:02:20;;;;;;;8.90;4.63;;;;;;;6.35;100.00;101648.00;5413212;26;20467;-71
2024/04/19 02:04:49;;;;;;;10.03;6.03;;;;;;;6.19;100.00;101361.00;5408302;26;20805;-71
2024/04/19 02:07:15;;;;;;;9.60;5.20;;;;;;;5.65;100.00;101270.56;5418492;26;20233;-71
2024/04/19 02:09:40;;;;;;;8.10;4.70;;;;;;;6.37;100.00;101387.56;5414775;26;20474;-73
2024/04/19 02:12:06;;;;;;;9.63;5.00;;;;;;;6.11;100.00;101305.00;5408368;26;20243;-72
2024/04/19 02:14:33;;;;;;;7.73;4.93;;;;;;;6.17;100.00;101306.19;5414109;26;20749;-72
2024/04/19 02:16:58;;;;;;;8.20;4.50;;;;;;;6.29;100.00;101294.25;5411115;26;20284;-73
2024/04/19 02:19:24;;;;;;;9.07;5.30;;;;;;;5.32;100.00;101125.88;5415441;26;20464;-72
2024/04/19 02:21:49;;;;;;;9.97;4.30;;;;;;;5.71;100.00;101161.81;5410935;26;20279;-72
2024/04/19 02:24:15;;;;;;;10.23;4.83;;;;;;;6.38;100.00;101250.66;5416392;26;20239;-74
2024/04/19 02:26:41;;;;;;;8.23;3.97;;;;;;;6.59;100.00;101268.06;5412025;26;20322;-71
2024/04/19 02:31:51;;;;;;;8.07;3.87;;;;;;;6.44;100.00;101222.53;5408311;26;20342;-72
2024/04/19 02:34:16;;;;;;;7.60;3.77;;;;;;;6.65;100.00;101179.44;5410813;26;20991;-73
2024/04/19 02:36:42;;;;;;;6.23;3.43;;;;;;;6.69;100.00;101143.47;5410982;26;20627;-72
2024/04/19 02:39:07;;;;;;;7.43;3.37;;;;;;;6.38;100.00;101089.97;5412083;26;20261;-73
2024/04/19 02:41:33;;;;;;;7.80;3.57;;;;;;;5.89;100.00;101011.63;5413723;26;20252;-72
2024/04/19 02:43:58;;;;;;;7.27;3.87;;;;;;;6.38;100.00;101189.38;5416391;26;20344;-72
2024/04/19 02:46:25;;;;;;;9.47;3.67;;;;;;;5.89;100.00;101096.81;5410584;26;20291;-72
2024/04/19 02:48:51;;;;;;;10.00;3.67;;;;;;;6.55;100.00;101225.72;5444661;26;20316;-72
2024/04/19 02:51:17;;;;;;;7.00;2.93;;;;;;;6.12;100.00;101122.88;5418506;26;20589;-72
2024/04/19 02:53:43;;;;;;;6.80;2.93;;;;;;;6.52;100.00;101167.44;5413839;26;20915;-71
2024/04/19 02:56:08;;;;;;;10.20;2.97;;;;;;;6.44;100.00;101170.06;5412040;26;20250;-72
2024/04/19 02:58:34;;;;;;;5.50;2.20;;;;;;;6.93;100.00;101233.31;5411682;26;20351;-71
2024/04/19 03:00:59;;;;;;;;;;;;;;;6.96;100.00;101227.63;5410935;26;19933;-71
2024/04/19 03:03:25;;;;;;;6.80;2.10;;;;;;;6.55;100.00;101182.25;5414415;26;20390;-72
2024/04/19 03:05:54;;;;;;;5.60;2.30;;;;;;;6.70;100.00;101046.50;5407633;26;20904;-71
2024/04/19 03:08:19;;;;;;;;;;;;;;;6.97;100.00;101167.94;5416621;26;19937;-72
2024/04/19 03:10:44;;;;;;;;;;;;;;;6.91;100.00;101174.78;5414352;26;19957;-71
2024/04/19 03:13:11;;;;;;;4.50;1.60;;;;;;;6.86;100.00;101181.66;5415073;26;20380;-72
2024/04/19 03:15:40;;;;;;;4.40;1.50;;;;;;;6.89;100.00;101178.66;5418089;26;19928;-71
2024/04/19 03:18:06;;;;;;;4.77;1.40;;;;;;;6.21;100.00;101067.81;5413062;26;20528;-71
2024/04/19 03:20:31;;;;;;;4.53;1.30;;;;;;;6.33;100.00;101082.47;5414493;26;20613;-73
2024/04/19 03:22:57;;;;;;;5.37;1.50;;;;;;;6.45;100.00;101114.94;5411835;26;20457;-71
2024/04/19 03:25:22;;;;;;;6.20;1.30;;;;;;;6.21;100.00;101057.97;5414088;26;20283;-73
2024/04/19 03:27:51;;;;;;;4.90;1.20;;;;;;;6.50;100.00;101113.44;5408318;26;20232;-72
2024/04/19 03:30:25;;;;;;;5.80;1.20;;;;;;;6.41;100.00;101103.78;5404765;26;20832;-72
2024/04/19 03:32:50;;;;;;;4.67;1.20;;;;;;;6.75;100.00;101158.81;5413834;26;20577;-72
2024/04/19 03:35:16;;;;;;;5.20;1.17;;;;;;;7.24;100.00;101212.13;5411949;26;20478;-71
2024/04/19 03:37:41;;;;;;;5.33;1.20;;;;;;;6.96;100.00;101187.63;5410061;26;20233;-73
2024/04/19 03:40:08;;;;;;;5.20;1.70;;;;;;;7.30;100.00;101243.47;5408662;26;20260;-72
2024/04/19 03:42:33;;;;;;;4.40;1.40;;;;;;;6.52;100.00;101138.13;5414563;26;20231;-73
2024/04/19 03:47:42;;;;;;;;;;;;;;;7.52;100.00;101353.22;5412516;26;20323;-74
2024/04/19 03:50:08;;;;;;;;;;;;;;;7.59;100.00;101371.09;5410579;26;20943;-73
2024/04/19 03:52:33;;;;;;;;;;;;;;;7.64;100.00;101373.28;5414693;26;20404;-72
2024/04/19 03:54:58;;;;;;;;;;;;;;;7.68;100.00;101383.44;5411552;26;20540;-73
2024/04/19 03:57:24;;;;;;;3.87;1.00;;;;;;;7.03;100.00;101292.66;5413093;26;20294;-73
2024/04/19 03:59:49;;;;;;;4.30;1.00;;;;;;;7.78;100.00;101395.78;5407720;26;20546;-73
2024/04/19 04:02:14;;;;;;;;;;;;;;;7.83;100.00;101404.97;5414327;26;20240;-74
2024/04/19 04:04:40;;;;;;;;;;;;;;;7.88;100.00;101404.50;5408810;26;20390;-74
2024/04/19 04:07:05;;;;;;;;;;;;;;;7.91;100.00;101412.16;5409366;26;19977;-74
2024/04/19 04:09:30;;;;;;;;;;;;;;;7.99;100.00;101428.19;5412565;26;19928;-74
2024/04/19 04:11:55;;;;;;;;;;;;;;;8.05;100.00;101416.00;5415984;26;19935;-75
2024/04/19 04:14:21;;;;;;;;;;;;;;;8.12;100.00;101422.34;5416758;26;19936;-71
2024/04/19 04:16:46;;;;;;;;;;;;;;;8.14;100.00;101409.66;5414437;26;19930;-72
2024/04/19 04:19:12;;;;;;;;;;;;;;;8.20;100.00;101408.97;5414709;26;19937;-71
2024/04/19 04:21:37;;;;;;;;;;;;;;;8.25;100.00;101408.47;5411543;26;20445;-71
2024/04/19 04:24:02;;;;;;;;;;;;;;;8.24;100.00;101399.59;5416451;26;19970;-71
2024/04/19 04:26:28;;;;;;;;;;;;;;;8.29;100.00;101391.91;5414598;26;19936;-72
2024/04/19 04:28:53;;;;;;;;;;;;;;;8.25;100.00;101379.91;5416085;26;19939;-72
2024/04/19 04:31:18;;;;;;;;;;;;;;;8.28;100.00;101378.72;5412794;26;20266;-71
2024/04/19 04:33:44;;;;;;;;;;;;;;;8.30;100.00;101380.22;5416708;26;19940;-71
2024/04/19 04:36:09;;;;;;;;;;;;;;;8.36;100.00;101382.22;5415847;26;19936;-71
2024/04/19 04:38:34;;;;;;;;;;;;;;;8.38;100.00;101376.69;5420100;26;19999;-72
2024/04/19 04:41:00;;;;;;;;;;;;;;;8.37;100.00;101367.00;5412838;26;20541;-75
2024/04/19 04:43:25;;;;;;;;;;;;;;;8.41;100.00;101354.16;5414851;26;20244;-71
2024/04/19 04:45:51;;;;;;;;;;;;;;;8.41;100.00;101319.41;5412143;26;19939;-71
2024/04/19 04:48:16;;;;;;;;;;;;;;;8.39;100.00;101271.47;5415802;26;19929;-72
2024/04/19 04:50:42;;;;;;;;;;;;;;;8.40;100.00;101186.78;5416791;26;20286;-71
2024/04/19 04:53:07;;;;;;;;;;;;;;;8.40;100.00;101091.38;5406950;26;20372;-71
2024/04/19 04:55:32;;;;;;;;;;;;;;;8.37;100.00;101032.91;5414090;26;19930;-71
2024/04/19 04:57:58;;;;;;;;;;;;;;;8.39;100.00;100964.09;5416939;26;19928;-71
2024/04/19 05:00:28;;;;;;;;;;;;;;;8.39;100.00;100883.91;5415938;26;20346;-71
2024/04/19 05:02:53;;;;;;;;;;;;;;;8.43;100.00;100833.56;5408970;26;20381;-71
2024/04/19 05:05:19;;;;;;;;;;;;;;;8.46;100.00;100811.81;5415260;26;19929;-71
2024/04/19 05:07:45;;;;;;;;;;;;;;;8.52;100.00;100728.19;5417989;26;19945;-71
2024/04/19 05:10:10;;;;;;;;;;;;;;;8.45;100.00;100744.16;5407027;26;19929;-71
2024/04/19 05:12:36;;;;;;;;;;;;;;;8.44;100.00;100702.41;5415917;26;20045;-71
2024/04/19 05:15:01;;;;;;;;;;;;;;;8.44;100.00;100667.66;5411911;26;20001;-71
2024/04/19 05:17:26;;;;;;;;;;;;;;;8.34;100.00;100699.19;5413577;26;19929;-72
2024/04/19 05:19:51;;;;;;;;;;;;;;;8.36;100.00;100731.88;5400268;26;19929;-73
2024/04/19 05:22:17;;;;;;;;;;;;;;;8.34;100.00;100760.66;5398207;26;20293;-73
2024/04/19 05:24:45;;;;;;;;;;;;;;;8.35;100.00;100789.03;5399138;26;19937;-73
2024/04/19 05:27:10;;;;;;;;;;;;;;;8.32;100.00;100808.94;5406075;26;19940;-70
2024/04/19 05:29:36;;;;;;;;;;;;;;;8.41;100.00;100823.06;5407548;26;20320;-70
2024/04/19 05:32:01;;;;;;;;;;;;;;;8.34;100.00;100851.50;5408579;26;19942;-71
2024/04/19 05:34:26;;;;;;;;;;;;;;;8.34;100.00;100897.78;5412308;26;19929;-71
2024/04/19 05:36:51;;;;;;;;;;;;;;;8.41;100.00;100918.47;5411091;26;20310;-71
2024/04/19 05:39:17;;;;;;;;;;;;;;;8.44;100.00;100944.81;5411647;26;20059;-71
2024/04/19 05:41:42;;;;;;;;;;;;;;;8.49;100.00;100942.44;5435363;26;19941;-70
2024/04/19 05:44:08;;;;;;;;;;;;;;;8.50;100.00;100944.09;5408946;26;23856;-70
2024/04/19 05:46:34;;;;;;;;;;;;;;;8.40;100.00;100935.50;5411906;26;19932;-70
2024/04/19 05:48:59;;;;;;;;;;;;;;;8.40;100.00;100943.53;5425062;26;19929;-69
2024/04/19 05:51:24;;;;;;;;;;;;;;;8.45;100.00;100947.31;5407158;26;19929;-71
2024/04/19 05:53:49;;;;;;;;;;;;;;;8.52;100.00;100945.56;5409465;26;19929;-71
2024/04/19 05:56:15;;;;;;;;;;;;;;;8.47;100.00;100950.63;5411344;26;19937;-70
2024/04/19 05:58:40;;;;;;;;;;;;;;;8.52;100.00;100945.56;5415095;26;19947;-69
2024/04/19 06:01:05;;;;;;;;;;;;;;;8.53;100.00;100943.72;5413236;26;19974;-69
2024/04/19 06:03:32;;;;;;;;;;;;;;;8.54;100.00;100950.75;5409825;26;19929;-70
2024/04/19 06:05:57;;;;;;;;;;;;;;;8.56;100.00;100952.22;5403900;26;19947;-70
2024/04/19 06:08:22;;;;;;;;;;;;;;;8.47;100.00;100960.50;5408296;26;20354;-69
2024/04/19 06:10:48;;;;;;;;;;;;;;;8.50;100.00;100968.16;5407915;26;19935;-70
2024/04/19 06:13:14;;;;;;;;;;;;;;;8.53;100.00;100971.31;5414991;26;19995;-69
2024/04/19 06:15:39;;;;;;;;;;;;;;;8.54;100.00;100974.81;5403104;26;20304;-69
2024/04/19 06:18:29;;;;;;;;;;;;;;;8.53;100.00;100973.97;5408779;26;19933;-70
2024/04/19 06:20:55;;;;;;;;;;;;;;;8.62;100.00;100981.91;5414911;26;20508;-69
2024/04/19 06:23:20;;;;;;;;;;;;;;;8.58;100.00;100963.56;5415332;26;19935;-70
2024/04/19 06:25:45;;;;;;;;;;;;;;;8.68;100.00;100967.78;5417450;26;19940;-70
2024/04/19 06:28:10;;;;;;;;;;;;;;;8.59;100.00;100957.22;5407162;26;19935;-69
2024/04/19 06:30:36;;;;;;;;;;;;;;;8.63;100.00;100946.97;5418401;26;19932;-70
2024/04/19 06:33:01;;;;;;;;;;;;;;;8.70;100.00;100925.66;5411689;26;19974;-70
2024/04/19 06:35:26;;;;;;;;;;;;;;;8.72;100.00;100923.66;5410881;26;19928;-69
2024/04/19 06:37:52;;;;;;;;;;;;;;;8.80;100.00;100923.56;5414623;26;19937;-70
2024/04/19 06:40:17;;;;;;;;;;;;;;;8.82;100.00;100892.94;5410863;26;20254;-70
2024/04/19 06:42:42;;;;;;;;;;;;;;;8.79;100.00;100901.34;5414063;26;19929;-69
2024/04/19 06:45:08;;;;;;;;;;;;;;;8.31;100.00;100914.19;5410779;26;19943;-70
2024/04/19 06:47:33;;;;;;;;;;;;;;;8.22;100.00;100915.28;5413023;26;19929;-70
2024/04/19 06:49:58;;;;;;;;;;;;;;;8.12;100.00;100920.84;5411965;26;19929;-70
2024/04/19 06:52:24;;;;;;;;;;;;;;;8.18;100.00;100926.50;5420173;26;20001;-72
2024/04/19 06:54:50;;;;;;;;;;;;;;;8.15;100.00;100931.19;5416163;26;20366;-72
2024/04/19 06:57:15;;;;;;;;;;;;;;;8.23;100.00;100932.94;5417029;26;20359;-70
2024/04/19 06:59:41;;;;;;;;;;;;;;;8.38;100.00;100931.16;5413646;26;19941;-69
2024/04/19 07:02:07;;;;;;;;;;;;;;;8.44;100.00;100928.78;5412298;26;19940;-69
2024/04/19 07:04:32;;;;;;;;;;;;;;;8.37;100.00;100929.47;5407494;26;20379;-70
2024/04/19 07:06:57;;;;;;;;;;;;;;;8.38;100.00;100927.63;5414707;26;20269;-70
2024/04/19 07:09:23;;;;;;;;;;;;;;;8.57;100.00;100931.66;5409933;26;20372;-70
2024/04/19 07:11:48;;;;;;;;;;;;;;;8.65;100.00;100928.06;5410327;26;19932;-69
2024/04/19 07:14:13;;;;;;;;;;;;;;;8.79;100.00;100927.22;5406110;26;19969;-71
2024/04/19 07:16:38;;;;;;;;;;;;;;;8.85;100.00;100933.69;5415552;26;19941;-70
2024/04/19 07:19:04;;;;;;;;;;;;;;;8.87;100.00;100931.66;5408558;26;20005;-70
2024/04/19 07:21:29;;;;;;;;;;;;;;;8.89;100.00;100927.78;5412188;26;19935;-70
2024/04/19 07:23:54;;;;;;;;;;;;;;;8.85;100.00;100905.09;5410259;26;19940;-70
2024/04/19 07:26:20;;;;;;;;;;;;;;;8.93;100.00;100883.59;5412040;26;19929;-70
2024/04/19 07:28:45;;;;;;;;;;;;;;;8.95;100.00;100864.69;5407705;26;21352;-70
2024/04/19 07:31:10;;;;;;;;;;;;;;;8.93;100.00;100850.66;5411437;26;20366;-69
2024/04/19 07:33:36;;;;;;;;;;;;;;;9.01;100.00;100837.19;5408210;26;19944;-70
2024/04/19 07:36:01;;;;;;;;;;;;;;;8.94;100.00;100828.22;5410887;26;19929;-70
2024/04/19 07:38:26;;;;;;;;;;;;;;;9.06;100.00;100818.72;5412104;26;20092;-70
2024/04/19 07:40:52;;;;;;;;;;;;;;;9.04;100.00;100810.03;5410568;26;19929;-69
2024/04/19 07:43:17;;;;;;;;;;;;;;;9.09;100.00;100783.56;5408925;26;20038;-69
2024/04/19 07:45:43;;;;;;;;;;;;;;;9.09;100.00;100772.03;5411840;26;19935;-69
2024/04/19 07:48:08;;;;;;;;;;;;;;;9.15;100.00;100750.69;5418159;26;20025;-70
2024/04/19 07:50:33;;;;;;;;;;;;;;;9.22;100.00;100750.72;5417113;26;19940;-69
2024/04/19 07:52:59;;;;;;;;;;;;;;;9.03;100.00;100760.25;5416240;26;19928;-69
2024/04/19 07:55:24;;;;;;;;;;;;;;;8.55;100.00;100770.59;5414033;26;19928;-70
2024/04/19 07:57:49;;;;;;;;;;;;;;;8.52;100.00;100770.97;5410823;26;19940;-70
2024/04/19 08:00:21;;;;;;;;;;;;;;;8.54;100.00;100782.31;5408360;26;19936;-70
2024/04/19 08:02:46;;;;;;;;;;;;;;;8.75;100.00;100797.56;5413156;26;19941;-70
2024/04/19 08:05:11;;;;;;;;;;;;;;;8.89;100.00;100802.06;5408141;26;19936;-69
2024/04/19 08:07:37;;;;;;;;;;;;;;;9.01;100.00;100821.13;5415419;26;19928;-69
2024/04/19 08:10:03;;;;;;;;;;;;;;;9.12;100.00;100811.78;5414379;26;19933;-69
2024/04/19 08:12:28;;;;;;;;;;;;;;;9.05;100.00;100799.16;5425309;26;19940;-69
2024/04/19 08:14:53;;;;;;;;;;;;;;;9.15;100.00;100764.06;5412002;26;19936;-70
2024/04/19 08:17:18;;;;;;;;;;;;;;;9.16;100.00;100712.19;5428662;21;19948;-73
2024/04/19 08:19:44;;;;;;;;;;;;;;;9.12;100.00;100694.06;5416739;26;19928;-74
2024/04/19 08:22:10;;;;;;;;;;;;;;;9.11;100.00;100668.28;5403612;26;19933;-74
2024/04/19 08:24:36;;;;;;;;;;;;;;;9.10;100.00;100662.13;5393962;26;20406;-74
2024/04/19 08:27:01;;;;;;;;;;;;;;;9.09;100.00;100656.97;5398770;26;19945;-73
2024/04/19 08:29:26;;;;;;;;;;;;;;;9.05;100.00;100651.16;5395260;26;19941;-73
2024/04/19 08:31:52;;;;;;;;;;;;;;;9.08;100.00;100668.69;5395560;26;19936;-73
2024/04/19 08:34:17;;;;;;;;;;;;;;;8.93;100.00;100685.63;5393680;26;19944;-73
2024/04/19 08:36:42;;;;;;;;;;;;;;;8.74;100.00;100731.75;5391712;26;19942;-73
2024/04/19 08:39:08;;;;;;;;;;;;;;;8.75;100.00;100771.66;5389136;26;20721;-73
2024/04/19 08:41:34;;;;;;;;;;;;;;;8.55;100.00;100818.72;5408912;26;19933;-74
2024/04/19 08:44:00;;;;;;;;;;;;;;;8.47;100.00;100869.59;5426072;26;19936;-73
2024/04/19 08:46:32;;;;;;;;;;;;;;;8.33;100.00;100889.94;5397364;26;19941;-73
2024/04/19 08:48:58;;;;;;;;;;;;;;;8.21;100.00;100905.56;5393399;26;19929;-73
2024/04/19 08:51:24;;;;;;;;;;;;;;;8.37;100.00;100916.13;5399933;26;20547;-73
2024/04/19 08:53:51;;;;;;;;;;;;;;;8.26;100.00;100905.88;5397353;26;19944;-73
2024/04/19 08:56:16;;;;;;;;;;;;;;;8.35;100.00;100893.25;5396201;26;20337;-73
2024/04/19 08:58:42;;;;;;;;;;;;;;;8.39;100.00;100897.28;5392375;26;19929;-73
2024/04/19 09:01:07;;;;;;;;;;;;;;;8.41;100.00;100905.09;5403209;26;19945;-73
2024/04/19 09:03:32;;;;;;;;;;;;;;;8.43;100.00;100903.91;5393126;26;19995;-73
2024/04/19 09:05:57;;;;;;;;;;;;;;;8.52;100.00;100904.63;5387431;26;20263;-73
2024/04/19 09:08:23;;;;;;;;;;;;;;;8.48;100.00;100896.16;5388228;26;19936;-73
2024/04/19 09:10:51;;;;;;;;;;;;;;;8.52;100.00;100894.78;5392862;26;19939;-73
2024/04/19 09:13:17;;;;;;;;;;;;;;;8.53;100.00;100898.28;5384863;26;19929;-73
2024/04/19 09:15:45;;;;;;;;;;;;;;;8.47;100.00;100896.34;5394946;26;20006;-73
2024/04/19 09:18:10;;;;;;;;;;;;;;;8.51;100.00;100897.66;5429237;26;20186;-73
2024/04/19 09:20:36;;;;;;;;;;;;;;;8.49;100.00;100848.88;5427113;26;19963;-73
2024/04/19 09:23:01;;;;;;;;;;;;;;;8.61;100.00;100850.06;5425472;26;19936;-73
2024/04/19 09:25:26;;;;;;;;;;;;;;;8.74;100.00;100847.56;5428363;26;19944;-73
2024/04/19 09:27:55;;;;;;;;;;;;;;;8.96;100.00;100852.97;5430003;26;19929;-73
2024/04/19 09:30:21;;;;;;;;;;;;;;;9.03;100.00;100848.53;5398982;26;19941;-73
2024/04/19 09:32:47;;;;;;;;;;;;;;;9.22;100.00;100839.88;5426620;26;19944;-73
2024/04/19 09:35:13;;;;;;;;;;;;;;;9.23;100.00;100838.88;5424793;26;20261;-73
2024/04/19 09:37:39;;;;;;;;;;;;;;;9.29;100.00;100823.91;5427848;26;19928;-73
2024/04/19 09:40:04;;;;;;;;;;;;;;;9.28;100.00;100807.00;5424161;26;19929;-73
2024/04/19 09:42:31;;;;;;;;;;;;;;;9.40;100.00;100788.59;5429247;26;19929;-73
2024/04/19 09:44:59;;;;;;;;;;;;;;;9.32;100.00;100787.91;5429627;26;20265;-73
2024/04/19 09:47:27;;;;;;;;;;;;;;;9.29;100.00;100773.06;5402535;26;20004;-73
2024/04/19 09:49:56;;;;;;;;;;;;;;;9.44;100.00;100765.75;5428634;26;20360;-73
2024/04/19 09:52:22;;;;;;;;;;;;;;;9.53;100.00;100749.56;5429368;26;19936;-73
2024/04/19 09:54:59;;;;;;;;;;;;;;;9.55;100.00;100723.44;5429691;26;19928;-73
2024/04/19 09:57:26;;;;;;;;;;;;;;;9.68;100.00;100673.44;5431506;26;20366;-73
2024/04/19 09:59:52;;;;;;;;;;;;;;;9.73;100.00;100640.72;5423158;26;19929;-73
2024/04/19 10:02:17;;;;;;;;;;;;;;;9.69;100.00;100602.81;5427179;26;20283;-73
2024/04/19 10:04:43;;;;;;;;;;;;;;;9.79;100.00;100580.19;5428293;26;19929;-73
2024/04/19 10:07:10;;;;;;;;;;;;;;;9.71;100.00;100551.69;5427308;26;19937;-73
2024/04/19 10:09:36;;;;;;;;;;;;;;;9.85;100.00;100580.19;5429428;26;19929;-73
2024/04/19 10:12:02;;;;;;;;;;;;;;;9.93;100.00;100555.09;5426135;26;19968;-73
2024/04/19 10:14:29;;;;;;;;;;;;;;;10.08;100.00;100546.88;5428941;26;20405;-73
2024/04/19 10:16:55;;;;;;;;;;;;;;;10.02;100.00;100534.31;5429590;26;20446;-73
2024/04/19 10:19:21;;;;;;;;;;;;;;;9.78;100.00;100536.50;5429988;26;19936;-74
2024/04/19 10:21:51;;;;;;;;;;;;;;;9.79;100.00;100546.19;5403793;26;20030;-74
2024/04/19 10:24:16;;;;;;;;;;;;;;;9.31;100.00;100572.09;5428294;26;20437;-74
2024/04/19 10:26:44;;;;;;;;;;;;;;;9.14;100.00;100625.94;5428146;26;19933;-73
2024/04/19 10:29:09;;;;;;;;;;;;;;;8.88;100.00;100657.81;5428087;26;19969;-74
2024/04/19 10:31:34;;;;;;;;;;;;;;;8.82;100.00;100676.28;5425430;26;19952;-74
2024/04/19 10:34:00;;;;;;;;;;;;;;;8.71;100.00;100689.34;5422221;26;19928;-74
2024/04/19 10:36:31;;;;;;;;;;;;;;;8.82;100.00;100702.19;5429161;26;19929;-74
2024/04/19 10:38:57;;;;;;;;;;;;;;;9.00;100.00;100723.16;5427528;26;19964;-73
2024/04/19 10:41:23;;;;;;;;;;;;;;;8.99;100.00;100745.56;5428590;26;19935;-73
2024/04/19 10:43:48;;;;;;;;;;;;;;;9.22;100.00;100727.47;5422654;26;20282;-74
2024/04/19 10:46:17;;;;;;;;;;;;;;;9.31;100.00;100728.16;5424386;26;19933;-74
2024/04/19 10:48:42;;;;;;;;;;;;;;;9.46;100.00;100731.59;5425756;26;19936;-73
2024/04/19 10:51:13;;;;;;;;;;;;;;;9.34;100.00;100722.41;5419283;26;19933;-73
2024/04/19 10:53:39;;;;;;;;;;;;;;;9.38;100.00;100691.59;5427363;26;19929;-73
2024/04/19 10:56:04;;;;;;;;;;;;;;;9.63;100.00;100694.66;5428693;26;19956;-73
2024/04/19 10:58:30;;;;;;;;;;;;;;;9.49;100.00;100700.94;5423483;26;19935;-73
2024/04/19 11:00:55;;;;;;;;;;;;;;;9.33;100.00;100690.50;5399278;26;19953;-74
2024/04/19 11:03:21;;;;;;;;;;;;;;;9.31;100.00;100649.72;5403465;26;20001;-73
2024/04/19 11:05:46;;;;;;;;;;;;;;;9.54;100.00;100612.78;5403341;26;19945;-74
2024/04/19 11:08:11;;;;;;;;;;;;;;;9.67;100.00;100578.06;5428350;26;19929;-73
2024/04/19 11:10:37;;;;;;;;;;;;;;;9.86;100.00;100546.19;5404758;26;19936;-73
2024/04/19 11:13:03;;;;;;;;;;;;;;;9.98;100.00;100535.72;5400066;26;20170;-73
2024/04/19 11:15:30;;;;;;;;;;;;;;;10.02;100.00;100524.41;5429955;26;19929;-74
2024/04/19 11:17:55;;;;;;;;;;;;;;;10.04;100.00;100505.41;5418124;26;19970;-73
2024/04/19 11:20:20;;;;;;;;;;;;;;;9.89;100.00;100486.84;5419771;26;20635;-73
2024/04/19 11:22:46;;;;;;;;;;;;;;;9.79;100.00;100487.25;5420024;26;20444;-73
2024/04/19 11:25:11;;;;;;;;;;;;;;;9.57;100.00;100489.22;5429181;26;19940;-74
2024/04/19 11:27:36;;;;;;;;;;;;;;;9.60;100.00;100475.44;5426030;26;20378;-73
2024/04/19 11:30:02;;;;;;;;;;;;;;;9.60;100.00;100478.13;5425357;26;19928;-73
2024/04/19 11:32:28;;;;;;;;;;;;;;;9.78;100.00;100484.75;5426110;26;19929;-74
2024/04/19 11:34:53;;;;;;;;;;;;;;;9.66;100.00;100485.38;5427339;26;19960;-73
2024/04/19 11:37:18;;;;;;;;;;;;;;;9.81;100.00;100471.00;5429031;26;19933;-73
2024/04/19 11:39:45;;;;;;;;;;;;;;;10.07;100.00;100456.81;5425624;26;19956;-73
2024/04/19 11:42:12;;;;;;;;;;;;;;;10.04;100.00;100455.38;5426152;26;20077;-73
2024/04/19 11:44:38;;;;;;;;;;;;;;;10.09;100.00;100449.38;5425693;26;19937;-73
2024/04/19 11:47:04;;;;;;;;;;;;;;;9.92;100.00;100460.50;5423703;26;20365;-73
2024/04/19 11:49:29;;;;;;;;;;;;;;;10.03;100.00;100442.16;5420966;26;20050;-73
2024/04/19 11:51:55;;;;;;;;;;;;;;;10.07;100.00;100448.78;5422415;26;20013;-73
2024/04/19 11:54:20;;;;;;;;;;;;;;;10.09;100.00;100444.84;5415407;26;20306;-73
2024/04/19 11:56:46;;;;;;;;;;;;;;;10.17;100.00;100439.28;5416359;26;19988;-73
2024/04/19 11:59:20;;;;;;;;;;;;;;;10.06;100.00;100466.69;5411286;26;19929;-73
2024/04/19 12:01:45;;;;;;;;;;;;;;;9.94;100.00;100461.09;5414870;26;20048;-73
2024/04/19 12:04:11;;;;;;;;;;;;;;;9.78;100.00;100466.84;5411629;26;20402;-73
2024/04/19 12:06:36;;;;;;;;;;;;;;;9.83;100.00;100453.66;5411844;26;19956;-73
2024/04/19 12:09:02;;;;;;;;;;;;;;;9.84;100.00;100470.59;5411807;26;19928;-73
2024/04/19 12:11:28;;;;;;;;;;;;;;;9.90;100.00;100459.06;5381431;26;19966;-73